createdAt,value
2023-02-02T00:00:00.126Z,1003.28
2023-02-02T00:01:00.029Z,1003.42
2023-02-02T00:01:59.966Z,1003.31
2023-02-02T00:02:59.898Z,1003.37
2023-02-02T00:03:59.848Z,1003.18
2023-02-02T00:04:59.752Z,1003.21
2023-02-02T00:05:59.686Z,1003.34
2023-02-02T00:06:59.623Z,1003.20
2023-02-02T00:07:59.545Z,1003.33
2023-02-02T00:08:59.482Z,1003.31
2023-02-02T00:09:59.401Z,1003.35
2023-02-02T00:10:59.333Z,1003.41
2023-02-02T00:11:59.277Z,1003.27
2023-02-02T00:12:59.193Z,1003.29
2023-02-02T00:13:59.174Z,1003.24
2023-02-02T00:14:59.056Z,1003.40
2023-02-02T00:15:59.022Z,1003.22
2023-02-02T00:16:58.921Z,1003.14
2023-02-02T00:17:58.853Z,1003.26
2023-02-02T00:18:58.767Z,1003.18
2023-02-02T00:19:58.701Z,1003.20
2023-02-02T00:20:58.644Z,1003.32
2023-02-02T00:21:58.571Z,1003.30
2023-02-02T00:22:58.491Z,1003.23
2023-02-02T00:23:58.437Z,1003.30
2023-02-02T00:24:58.371Z,1003.32
2023-02-02T00:25:58.302Z,1003.17
2023-02-02T00:26:58.215Z,1003.34
2023-02-02T00:27:58.160Z,1003.17
2023-02-02T00:28:58.086Z,1003.18
2023-02-02T00:29:58.015Z,1003.16
2023-02-02T00:30:58.022Z,1003.23
2023-02-02T00:31:57.870Z,1003.16
2023-02-02T00:32:57.815Z,1003.17
2023-02-02T00:33:57.738Z,1003.15
2023-02-02T00:34:57.664Z,1003.16
2023-02-02T00:35:57.598Z,1003.11
2023-02-02T00:36:57.529Z,1003.13
2023-02-02T00:37:57.457Z,1003.13
2023-02-02T00:38:57.389Z,1003.05
2023-02-02T00:39:57.317Z,1003.09
2023-02-02T00:40:57.248Z,1003.06
2023-02-02T00:41:57.180Z,1003.03
2023-02-02T00:42:57.124Z,1002.87
2023-02-02T00:43:57.051Z,1003.00
2023-02-02T00:44:56.968Z,1003.00
2023-02-02T00:45:57.044Z,1003.01
2023-02-02T00:46:56.830Z,1003.03
2023-02-02T00:47:56.759Z,1002.98
2023-02-02T00:48:56.693Z,1003.06
2023-02-02T00:49:56.642Z,1003.15
2023-02-02T00:50:56.557Z,1002.99
2023-02-02T00:51:56.492Z,1003.12
2023-02-02T00:52:56.412Z,1003.12
2023-02-02T00:53:56.342Z,1003.23
2023-02-02T00:54:56.274Z,1003.20
2023-02-02T00:55:56.206Z,1003.02
2023-02-02T00:56:56.129Z,1003.18
2023-02-02T00:57:56.067Z,1003.15
2023-02-02T00:58:56.013Z,1003.12
2023-02-02T00:59:55.951Z,1003.14
2023-02-02T01:00:55.865Z,1003.07
2023-02-02T01:01:55.868Z,1003.07
2023-02-02T01:02:55.724Z,1003.12
2023-02-02T01:03:55.655Z,1003.15
2023-02-02T01:04:55.580Z,1003.26
2023-02-02T01:05:55.512Z,1003.23
2023-02-02T01:06:55.459Z,1003.09
2023-02-02T01:07:55.369Z,1003.32
2023-02-02T01:08:55.307Z,1003.23
2023-02-02T01:09:55.236Z,1003.38
2023-02-02T01:10:55.168Z,1003.28
2023-02-02T01:11:55.111Z,1003.23
2023-02-02T01:12:55.024Z,1003.28
2023-02-02T01:13:54.953Z,1003.10
2023-02-02T01:14:54.878Z,1003.26
2023-02-02T01:15:54.808Z,1003.34
2023-02-02T01:16:54.738Z,1003.01
2023-02-02T01:17:54.668Z,1003.27
2023-02-02T01:18:54.612Z,1003.27
2023-02-02T01:19:54.533Z,1003.22
2023-02-02T01:20:54.463Z,1003.28
2023-02-02T01:21:54.391Z,1003.23
2023-02-02T01:22:54.335Z,1003.11
2023-02-02T01:23:54.253Z,1003.18
2023-02-02T01:24:54.178Z,1003.31
2023-02-02T01:25:54.112Z,1003.31
2023-02-02T01:26:54.062Z,1003.29
2023-02-02T01:27:53.974Z,1003.30
2023-02-02T01:28:53.910Z,1003.31
2023-02-02T01:29:53.832Z,1003.11
2023-02-02T01:30:53.816Z,1003.08
2023-02-02T01:31:53.722Z,1003.29
2023-02-02T01:32:53.624Z,1003.22
2023-02-02T01:33:53.556Z,1003.18
2023-02-02T01:34:53.487Z,1003.13
2023-02-02T01:35:53.414Z,1003.17
2023-02-02T01:36:53.343Z,1003.13
2023-02-02T01:37:53.346Z,1003.25
2023-02-02T01:38:53.219Z,1003.11
2023-02-02T01:39:53.137Z,1003.29
2023-02-02T01:40:53.063Z,1003.29
2023-02-02T01:41:52.995Z,1003.16
2023-02-02T01:42:52.923Z,1003.47
2023-02-02T01:43:52.933Z,1003.15
2023-02-02T01:44:52.809Z,1003.17
2023-02-02T01:45:52.762Z,1003.07
2023-02-02T01:46:52.648Z,1003.18
2023-02-02T01:47:52.581Z,1003.20
2023-02-02T01:48:52.501Z,1003.16
2023-02-02T01:49:52.439Z,1003.16
2023-02-02T01:50:52.367Z,1003.16
2023-02-02T01:51:52.297Z,1003.24
2023-02-02T01:52:52.226Z,1003.39
2023-02-02T01:53:52.161Z,1003.39
2023-02-02T01:54:52.095Z,1003.49
2023-02-02T01:55:52.017Z,1003.38
2023-02-02T01:56:51.959Z,1003.24
2023-02-02T01:57:51.883Z,1003.27
2023-02-02T01:58:51.815Z,1003.36
2023-02-02T01:59:51.733Z,1003.49
2023-02-02T02:00:51.670Z,1003.41
2023-02-02T02:01:51.612Z,1003.39
2023-02-02T02:02:51.533Z,1003.38
2023-02-02T02:03:51.460Z,1003.41
2023-02-02T02:04:51.388Z,1003.32
2023-02-02T02:05:51.347Z,1003.45
2023-02-02T02:06:51.263Z,1003.40
2023-02-02T02:07:51.188Z,1003.49
2023-02-02T02:08:51.109Z,1003.46
2023-02-02T02:09:51.042Z,1003.31
2023-02-02T02:10:50.976Z,1003.43
2023-02-02T02:11:50.903Z,1003.54
2023-02-02T02:12:50.839Z,1003.36
2023-02-02T02:13:50.759Z,1003.40
2023-02-02T02:14:50.693Z,1003.49
2023-02-02T02:15:50.629Z,1003.39
2023-02-02T02:16:50.569Z,1003.32
2023-02-02T02:17:50.489Z,1003.62
2023-02-02T02:18:50.412Z,1003.37
2023-02-02T02:19:50.341Z,1003.42
2023-02-02T02:20:50.280Z,1003.46
2023-02-02T02:21:50.214Z,1003.48
2023-02-02T02:22:50.152Z,1003.44
2023-02-02T02:23:50.059Z,1003.51
2023-02-02T02:24:49.988Z,1003.60
2023-02-02T02:25:49.928Z,1003.33
2023-02-02T02:26:49.936Z,1003.53
2023-02-02T02:27:49.791Z,1003.55
2023-02-02T02:28:49.717Z,1003.45
2023-02-02T02:29:49.660Z,1003.53
2023-02-02T02:30:49.694Z,1003.31
2023-02-02T02:31:49.601Z,1003.48
2023-02-02T02:32:49.460Z,1003.63
2023-02-02T02:33:49.384Z,1003.60
2023-02-02T02:34:49.308Z,1003.57
2023-02-02T02:35:49.235Z,1003.67
2023-02-02T02:36:49.168Z,1003.60
2023-02-02T02:37:49.105Z,1003.58
2023-02-02T02:38:49.031Z,1003.57
2023-02-02T02:39:48.953Z,1003.63
2023-02-02T02:40:48.896Z,1003.69
2023-02-02T02:41:48.826Z,1003.54
2023-02-02T02:42:48.753Z,1003.66
2023-02-02T02:43:48.696Z,1003.70
2023-02-02T02:44:48.625Z,1003.61
2023-02-02T02:45:48.578Z,1003.70
2023-02-02T02:46:48.481Z,1003.79
2023-02-02T02:47:48.408Z,1003.68
2023-02-02T02:48:48.359Z,1003.73
2023-02-02T02:49:48.265Z,1003.78
2023-02-02T02:50:48.192Z,1003.77
2023-02-02T02:51:48.120Z,1003.74
2023-02-02T02:52:48.065Z,1003.71
2023-02-02T02:53:47.982Z,1003.79
2023-02-02T02:54:47.922Z,1003.77
2023-02-02T02:55:47.868Z,1003.73
2023-02-02T02:56:47.778Z,1003.80
2023-02-02T02:57:47.716Z,1003.81
2023-02-02T02:58:47.638Z,1003.80
2023-02-02T02:59:47.558Z,1003.79
2023-02-02T03:00:47.503Z,1003.81
2023-02-02T03:01:47.507Z,1003.88
2023-02-02T03:02:47.381Z,1003.76
2023-02-02T03:03:47.292Z,1004.06
2023-02-02T03:04:47.218Z,1004.04
2023-02-02T03:05:47.180Z,1003.94
2023-02-02T03:06:47.095Z,1003.98
2023-02-02T03:07:47.013Z,1004.01
2023-02-02T03:08:46.949Z,1004.10
2023-02-02T03:09:46.869Z,1004.19
2023-02-02T03:10:46.822Z,1003.87
2023-02-02T03:11:46.743Z,1004.03
2023-02-02T03:12:46.661Z,1004.11
2023-02-02T03:13:46.604Z,1004.12
2023-02-02T03:14:46.522Z,1004.17
2023-02-02T03:15:46.513Z,1004.04
2023-02-02T03:16:46.399Z,1004.14
2023-02-02T03:17:46.388Z,1003.78
2023-02-02T03:18:46.252Z,1004.26
2023-02-02T03:19:46.187Z,1004.26
2023-02-02T03:20:46.128Z,1004.31
2023-02-02T03:21:46.046Z,1004.32
2023-02-02T03:22:45.970Z,1004.35
2023-02-02T03:23:45.922Z,1004.29
2023-02-02T03:24:45.847Z,1004.33
2023-02-02T03:25:45.763Z,1004.41
2023-02-02T03:26:45.788Z,1004.39
2023-02-02T03:27:45.631Z,1004.44
2023-02-02T03:28:45.567Z,1004.50
2023-02-02T03:29:45.517Z,1004.50
2023-02-02T03:30:45.457Z,1004.39
2023-02-02T03:31:45.377Z,1004.67
2023-02-02T03:32:45.298Z,1004.54
2023-02-02T03:33:45.239Z,1004.52
2023-02-02T03:34:45.146Z,1004.56
2023-02-02T03:35:45.085Z,1004.69
2023-02-02T03:36:45.003Z,1004.65
2023-02-02T03:37:44.961Z,1004.66
2023-02-02T03:38:44.940Z,1004.56
2023-02-02T03:39:44.812Z,1004.70
2023-02-02T03:40:44.741Z,1004.75
2023-02-02T03:41:44.667Z,1004.69
2023-02-02T03:42:44.618Z,1004.69
2023-02-02T03:43:44.539Z,1004.78
2023-02-02T03:44:44.457Z,1004.68
2023-02-02T03:45:44.387Z,1004.86
2023-02-02T03:46:44.400Z,1004.74
2023-02-02T03:47:44.246Z,1004.74
2023-02-02T03:48:44.180Z,1004.79
2023-02-02T03:49:44.109Z,1004.77
2023-02-02T03:50:44.048Z,1004.71
2023-02-02T03:51:43.987Z,1004.90
2023-02-02T03:52:43.905Z,1004.86
2023-02-02T03:53:43.910Z,1004.91
2023-02-02T03:54:43.785Z,1004.89
2023-02-02T03:55:43.717Z,1004.95
2023-02-02T03:56:43.642Z,1005.02
2023-02-02T03:57:43.658Z,1005.00
2023-02-02T03:58:43.499Z,1004.98
2023-02-02T03:59:43.426Z,1005.11
2023-02-02T04:00:43.351Z,1005.08
2023-02-02T04:01:43.332Z,1005.00
2023-02-02T04:02:43.243Z,1005.10
2023-02-02T04:03:43.153Z,1005.14
2023-02-02T04:04:43.079Z,1005.13
2023-02-02T04:05:42.997Z,1005.11
2023-02-02T04:06:42.936Z,1005.21
2023-02-02T04:07:42.867Z,1005.35
2023-02-02T04:08:42.796Z,1005.26
2023-02-02T04:09:42.727Z,1005.27
2023-02-02T04:10:42.669Z,1005.30
2023-02-02T04:11:42.592Z,1005.23
2023-02-02T04:12:42.534Z,1005.36
2023-02-02T04:13:42.447Z,1005.38
2023-02-02T04:14:42.387Z,1005.37
2023-02-02T04:15:42.309Z,1005.36
2023-02-02T04:16:42.246Z,1005.41
2023-02-02T04:17:42.171Z,1005.45
2023-02-02T04:18:42.113Z,1005.51
2023-02-02T04:19:42.038Z,1005.48
2023-02-02T04:20:41.978Z,1005.40
2023-02-02T04:21:41.912Z,1005.52
2023-02-02T04:22:41.844Z,1005.45
2023-02-02T04:23:41.760Z,1005.60
2023-02-02T04:24:41.694Z,1005.67
2023-02-02T04:25:41.617Z,1005.57
2023-02-02T04:26:41.580Z,1005.67
2023-02-02T04:27:41.482Z,1005.69
2023-02-02T04:28:41.419Z,1005.68
2023-02-02T04:29:41.349Z,1005.82
2023-02-02T04:30:41.297Z,1005.76
2023-02-02T04:31:41.251Z,1005.82
2023-02-02T04:32:41.142Z,1005.82
2023-02-02T04:33:41.082Z,1005.89
2023-02-02T04:34:41.006Z,1005.75
2023-02-02T04:35:40.935Z,1005.86
2023-02-02T04:36:40.860Z,1005.89
2023-02-02T04:37:40.797Z,1005.95
2023-02-02T04:38:40.733Z,1005.83
2023-02-02T04:39:40.654Z,1005.93
2023-02-02T04:40:40.584Z,1005.98
2023-02-02T04:41:40.526Z,1005.91
2023-02-02T04:42:40.448Z,1005.99
2023-02-02T04:43:40.392Z,1005.92
2023-02-02T04:44:40.311Z,1005.91
2023-02-02T04:45:40.289Z,1005.83
2023-02-02T04:46:40.172Z,1006.00
2023-02-02T04:47:40.112Z,1005.99
2023-02-02T04:48:40.059Z,1006.04
2023-02-02T04:49:39.967Z,1006.01
2023-02-02T04:50:39.898Z,1006.00
2023-02-02T04:51:39.839Z,1006.15
2023-02-02T04:52:39.767Z,1006.10
2023-02-02T04:53:39.702Z,1006.03
2023-02-02T04:54:39.623Z,1006.12
2023-02-02T04:55:39.553Z,1006.13
2023-02-02T04:56:39.487Z,1006.14
2023-02-02T04:57:39.415Z,1006.15
2023-02-02T04:58:39.346Z,1006.18
2023-02-02T04:59:42.192Z,1006.09
2023-02-02T05:00:39.222Z,1006.21
2023-02-02T05:01:39.140Z,1006.19
2023-02-02T05:02:39.066Z,1006.19
2023-02-02T05:03:39.000Z,1006.20
2023-02-02T05:04:38.971Z,1006.24
2023-02-02T05:05:38.882Z,1006.26
2023-02-02T05:06:38.793Z,1006.27
2023-02-02T05:07:38.722Z,1006.10
2023-02-02T05:08:38.660Z,1006.34
2023-02-02T05:09:38.623Z,1006.30
2023-02-02T05:10:38.518Z,1006.34
2023-02-02T05:11:38.446Z,1006.36
2023-02-02T05:12:38.399Z,1006.36
2023-02-02T05:13:38.311Z,1006.35
2023-02-02T05:14:38.252Z,1006.39
2023-02-02T05:15:38.178Z,1006.53
2023-02-02T05:16:38.119Z,1006.49
2023-02-02T05:17:38.039Z,1006.52
2023-02-02T05:18:37.994Z,1006.51
2023-02-02T05:19:37.892Z,1006.56
2023-02-02T05:20:37.836Z,1006.59
2023-02-02T05:21:37.761Z,1006.65
2023-02-02T05:22:37.692Z,1006.59
2023-02-02T05:23:37.621Z,1006.56
2023-02-02T05:24:37.565Z,1006.69
2023-02-02T05:25:37.482Z,1006.67
2023-02-02T05:26:37.448Z,1006.84
2023-02-02T05:27:37.364Z,1006.67
2023-02-02T05:28:37.279Z,1006.72
2023-02-02T05:29:37.218Z,1006.68
2023-02-02T05:30:37.169Z,1006.73
2023-02-02T05:31:37.143Z,1006.81
2023-02-02T05:32:37.001Z,1006.82
2023-02-02T05:33:36.932Z,1006.80
2023-02-02T05:34:36.867Z,1006.63
2023-02-02T05:35:36.800Z,1006.77
2023-02-02T05:36:36.740Z,1006.80
2023-02-02T05:37:36.657Z,1006.89
2023-02-02T05:38:36.599Z,1006.95
2023-02-02T05:39:36.527Z,1006.87
2023-02-02T05:40:36.456Z,1006.96
2023-02-02T05:41:36.378Z,1006.93
2023-02-02T05:42:36.346Z,1007.02
2023-02-02T05:43:36.249Z,1006.82
2023-02-02T05:44:36.183Z,1006.93
2023-02-02T05:45:36.268Z,1007.06
2023-02-02T05:46:36.048Z,1006.96
2023-02-02T05:47:35.969Z,1007.10
2023-02-02T05:48:35.905Z,1007.04
2023-02-02T05:49:35.835Z,1007.10
2023-02-02T05:50:35.761Z,1007.03
2023-02-02T05:51:35.694Z,1007.05
2023-02-02T05:52:35.627Z,1007.18
2023-02-02T05:53:35.564Z,1007.12
2023-02-02T05:54:35.486Z,1007.14
2023-02-02T05:55:35.421Z,1007.10
2023-02-02T05:56:35.353Z,1007.07
2023-02-02T05:57:35.278Z,1007.22
2023-02-02T05:58:35.227Z,1007.17
2023-02-02T05:59:35.137Z,1007.20
2023-02-02T06:00:35.069Z,1007.18
2023-02-02T06:01:35.015Z,1007.11
2023-02-02T06:02:34.943Z,1007.19
2023-02-02T06:03:34.956Z,1007.21
2023-02-02T06:04:34.800Z,1007.27
2023-02-02T06:05:34.727Z,1007.31
2023-02-02T06:06:34.662Z,1007.33
2023-02-02T06:07:34.597Z,1007.35
2023-02-02T06:08:34.542Z,1007.38
2023-02-02T06:09:34.459Z,1007.39
2023-02-02T06:10:34.395Z,1007.37
2023-02-02T06:11:34.319Z,1007.44
2023-02-02T06:12:34.251Z,1007.42
2023-02-02T06:13:34.181Z,1007.46
2023-02-02T06:14:34.126Z,1007.56
2023-02-02T06:15:34.106Z,1007.61
2023-02-02T06:16:33.969Z,1007.56
2023-02-02T06:17:33.899Z,1007.61
2023-02-02T06:18:33.861Z,1007.62
2023-02-02T06:19:33.776Z,1007.51
2023-02-02T06:20:33.712Z,1007.53
2023-02-02T06:21:33.624Z,1007.63
2023-02-02T06:22:33.560Z,1007.73
2023-02-02T06:23:33.486Z,1007.62
2023-02-02T06:24:33.420Z,1007.71
2023-02-02T06:25:33.385Z,1007.75
2023-02-02T06:26:33.425Z,1007.82
2023-02-02T06:27:33.217Z,1007.76
2023-02-02T06:28:33.153Z,1007.81
2023-02-02T06:29:33.086Z,1007.86
2023-02-02T06:30:33.141Z,1007.77
2023-02-02T06:31:33.056Z,1007.82
2023-02-02T06:32:32.867Z,1007.83
2023-02-02T06:33:32.818Z,1007.84
2023-02-02T06:34:32.731Z,1007.84
2023-02-02T06:35:32.661Z,1007.96
2023-02-02T06:36:32.589Z,1007.87
2023-02-02T06:37:32.536Z,1007.98
2023-02-02T06:38:32.451Z,1007.99
2023-02-02T06:39:32.389Z,1007.92
2023-02-02T06:40:32.321Z,1007.97
2023-02-02T06:41:32.274Z,1008.00
2023-02-02T06:42:32.187Z,1007.97
2023-02-02T06:43:32.106Z,1008.06
2023-02-02T06:44:32.045Z,1008.01
2023-02-02T06:45:31.973Z,1008.03
2023-02-02T06:46:32.001Z,1008.09
2023-02-02T06:47:31.845Z,1007.98
2023-02-02T06:48:31.795Z,1008.14
2023-02-02T06:49:31.697Z,1008.11
2023-02-02T06:50:31.629Z,1008.15
2023-02-02T06:51:31.578Z,1008.14
2023-02-02T06:52:31.490Z,1008.23
2023-02-02T06:53:31.424Z,1008.24
2023-02-02T06:54:31.352Z,1008.27
2023-02-02T06:55:31.286Z,1008.30
2023-02-02T06:56:31.211Z,1008.30
2023-02-02T06:57:31.147Z,1008.37
2023-02-02T06:58:31.073Z,1008.37
2023-02-02T06:59:31.006Z,1008.39
2023-02-02T07:00:31.039Z,1008.34
2023-02-02T07:01:30.963Z,1008.36
2023-02-02T07:02:30.842Z,1008.35
2023-02-02T07:03:30.735Z,1008.37
2023-02-02T07:04:30.672Z,1008.47
2023-02-02T07:05:31.169Z,1008.50
2023-02-02T07:06:30.536Z,1008.47
2023-02-02T07:07:30.458Z,1008.42
2023-02-02T07:08:30.402Z,1008.48
2023-02-02T07:09:30.317Z,1008.46
2023-02-02T07:11:14.737Z,1008.56
2023-02-02T07:11:30.192Z,1008.49
2023-02-02T07:12:30.117Z,1008.55
2023-02-02T07:13:30.049Z,1008.63
2023-02-02T07:14:29.971Z,1008.72
2023-02-02T07:15:29.903Z,1008.74
2023-02-02T07:16:29.838Z,1008.73
2023-02-02T07:17:29.787Z,1008.68
2023-02-02T07:18:29.695Z,1008.76
2023-02-02T07:19:29.627Z,1008.82
2023-02-02T07:20:29.664Z,1008.81
2023-02-02T07:21:29.513Z,1008.83
2023-02-02T07:22:29.451Z,1008.77
2023-02-02T07:23:29.375Z,1008.91
2023-02-02T07:24:29.281Z,1008.93
2023-02-02T07:25:29.250Z,1008.94
2023-02-02T07:26:29.196Z,1008.96
2023-02-02T07:27:29.075Z,1008.93
2023-02-02T07:28:29.017Z,1009.00
2023-02-02T07:29:28.956Z,1009.04
2023-02-02T07:30:28.955Z,1008.99
2023-02-02T07:31:28.811Z,1009.04
2023-02-02T07:32:28.733Z,1009.08
2023-02-02T07:33:28.670Z,1009.11
2023-02-02T07:34:28.599Z,1009.00
2023-02-02T07:35:28.538Z,1009.14
2023-02-02T07:36:28.456Z,1009.15
2023-02-02T07:37:28.386Z,1009.03
2023-02-02T07:38:28.329Z,1009.14
2023-02-02T07:39:28.259Z,1009.09
2023-02-02T07:40:28.256Z,1009.13
2023-02-02T07:41:28.126Z,1009.16
2023-02-02T07:42:28.046Z,1009.13
2023-02-02T07:43:27.984Z,1009.14
2023-02-02T07:44:27.903Z,1009.08
2023-02-02T07:45:28.174Z,1009.12
2023-02-02T07:46:27.845Z,1009.03
2023-02-02T07:47:27.714Z,1009.15
2023-02-02T07:48:27.636Z,1009.19
2023-02-02T07:49:27.564Z,1009.20
2023-02-02T07:50:27.552Z,1009.22
2023-02-02T07:51:27.427Z,1009.26
2023-02-02T07:52:27.355Z,1009.28
2023-02-02T07:53:27.294Z,1009.29
2023-02-02T07:54:27.213Z,1009.30
2023-02-02T07:55:27.373Z,1009.30
2023-02-02T07:56:27.079Z,1009.27
2023-02-02T07:57:27.023Z,1009.32
2023-02-02T07:58:26.944Z,1009.33
2023-02-02T07:59:26.878Z,1009.31
2023-02-02T08:00:26.997Z,1009.39
2023-02-02T08:01:26.899Z,1009.38
2023-02-02T08:02:26.730Z,1009.40
2023-02-02T08:03:26.601Z,1009.36
2023-02-02T08:04:26.541Z,1009.38
2023-02-02T08:05:26.930Z,1009.42
2023-02-02T08:06:26.402Z,1009.39
2023-02-02T08:07:26.339Z,1009.44
2023-02-02T08:08:26.262Z,1009.49
2023-02-02T08:09:26.192Z,1009.52
2023-02-02T08:10:26.135Z,1009.53
2023-02-02T08:11:26.079Z,1009.58
2023-02-02T08:12:25.994Z,1009.62
2023-02-02T08:13:25.949Z,1009.63
2023-02-02T08:14:25.854Z,1009.68
2023-02-02T08:15:26.188Z,1009.64
2023-02-02T08:16:25.738Z,1009.60
2023-02-02T08:17:25.674Z,1009.65
2023-02-02T08:18:25.616Z,1009.67
2023-02-02T08:19:25.534Z,1009.71
2023-02-02T08:20:25.458Z,1009.66
2023-02-02T08:21:25.414Z,1009.74
2023-02-02T08:22:25.329Z,1009.66
2023-02-02T08:23:25.267Z,1009.80
2023-02-02T08:24:25.200Z,1009.70
2023-02-02T08:25:25.507Z,1009.85
2023-02-02T08:26:25.099Z,1009.80
2023-02-02T08:27:25.004Z,1009.77
2023-02-02T08:28:24.938Z,1009.76
2023-02-02T08:29:24.865Z,1009.74
2023-02-02T08:30:24.966Z,1009.84
2023-02-02T08:31:24.794Z,1009.91
2023-02-02T08:32:24.691Z,1009.95
2023-02-02T08:33:24.612Z,1009.89
2023-02-02T08:34:24.546Z,1009.95
2023-02-02T08:35:24.879Z,1009.89
2023-02-02T08:36:24.421Z,1009.93
2023-02-02T08:37:24.344Z,1009.96
2023-02-02T08:38:24.274Z,1010.01
2023-02-02T08:39:24.206Z,1009.95
2023-02-02T08:40:24.284Z,1010.01
2023-02-02T08:41:24.153Z,1009.99
2023-02-02T08:42:24.011Z,1010.02
2023-02-02T08:43:24.001Z,1010.04
2023-02-02T08:44:23.884Z,1010.03
2023-02-02T08:46:04.017Z,1009.88
2023-02-02T08:46:23.767Z,1010.05
2023-02-02T08:47:23.695Z,1010.12
2023-02-02T08:48:23.632Z,1010.12
2023-02-02T08:49:23.560Z,1010.24
2023-02-02T08:50:23.537Z,1010.19
2023-02-02T08:51:23.441Z,1010.12
2023-02-02T08:52:25.699Z,1010.12
2023-02-02T08:53:23.323Z,1010.10
2023-02-02T08:54:23.240Z,1010.04
2023-02-02T08:55:23.558Z,1010.15
2023-02-02T08:56:23.119Z,1010.11
2023-02-02T08:57:23.092Z,1009.93
2023-02-02T08:58:22.989Z,1010.17
2023-02-02T08:59:22.933Z,1010.10
2023-02-02T09:00:22.872Z,1009.93
2023-02-02T09:01:22.873Z,1010.01
2023-02-02T09:02:22.794Z,1010.02
2023-02-02T09:03:22.677Z,1009.99
2023-02-02T09:04:22.612Z,1010.09
2023-02-02T09:05:22.724Z,1010.10
2023-02-02T09:06:22.486Z,1010.06
2023-02-02T09:07:22.432Z,1009.97
2023-02-02T09:08:22.396Z,1010.10
2023-02-02T09:09:22.308Z,1010.12
2023-02-02T09:10:22.259Z,1010.04
2023-02-02T09:11:22.169Z,1010.01
2023-02-02T09:12:22.100Z,1010.08
2023-02-02T09:13:23.347Z,1010.10
2023-02-02T09:14:22.001Z,1010.03
2023-02-02T09:15:22.145Z,1010.18
2023-02-02T09:16:21.881Z,1010.17
2023-02-02T09:17:21.783Z,1010.24
2023-02-02T09:18:21.721Z,1010.20
2023-02-02T09:19:21.675Z,1010.24
2023-02-02T09:20:21.637Z,1010.19
2023-02-02T09:21:21.529Z,1010.34
2023-02-02T09:22:21.456Z,1010.33
2023-02-02T09:23:21.389Z,1010.33
2023-02-02T09:24:21.336Z,1010.29
2023-02-02T09:25:21.304Z,1010.36
2023-02-02T09:26:21.230Z,1010.37
2023-02-02T09:27:21.146Z,1010.33
2023-02-02T09:28:21.088Z,1010.41
2023-02-02T09:29:20.999Z,1010.40
2023-02-02T09:30:21.112Z,1010.44
2023-02-02T09:31:20.962Z,1010.46
2023-02-02T09:32:20.807Z,1010.47
2023-02-02T09:33:20.737Z,1010.44
2023-02-02T09:34:20.677Z,1010.53
2023-02-02T09:35:20.612Z,1010.41
2023-02-02T09:36:20.550Z,1010.50
2023-02-02T09:37:20.477Z,1010.41
2023-02-02T09:38:20.419Z,1010.57
2023-02-02T09:39:20.348Z,1010.54
2023-02-02T09:40:20.312Z,1010.61
2023-02-02T09:41:20.217Z,1010.63
2023-02-02T09:42:20.147Z,1010.61
2023-02-02T09:43:20.085Z,1010.57
2023-02-02T09:44:20.038Z,1010.60
2023-02-02T09:45:19.958Z,1010.60
2023-02-02T09:46:19.908Z,1010.67
2023-02-02T09:47:19.828Z,1010.81
2023-02-02T09:48:19.759Z,1010.80
2023-02-02T09:49:19.688Z,1010.86
2023-02-02T09:50:19.695Z,1010.76
2023-02-02T09:51:19.565Z,1010.78
2023-02-02T09:52:19.505Z,1010.71
2023-02-02T09:53:19.429Z,1010.76
2023-02-02T09:54:19.370Z,1010.84
2023-02-02T09:55:19.308Z,1010.76
2023-02-02T09:56:19.233Z,1010.78
2023-02-02T09:57:19.165Z,1010.89
2023-02-02T09:58:19.101Z,1010.79
2023-02-02T09:59:21.442Z,1010.78
2023-02-02T10:00:19.089Z,1010.76
2023-02-02T10:01:18.932Z,1010.77
2023-02-02T10:02:18.833Z,1010.84
2023-02-02T10:03:18.774Z,1010.81
2023-02-02T10:04:18.771Z,1010.83
2023-02-02T10:05:18.643Z,1010.85
2023-02-02T10:06:18.575Z,1010.90
2023-02-02T10:07:18.556Z,1010.89
2023-02-02T10:08:32.592Z,1010.92
2023-02-02T10:09:18.372Z,1010.94
2023-02-02T10:10:18.304Z,1010.86
2023-02-02T10:11:18.237Z,1010.89
2023-02-02T10:12:18.175Z,1010.91
2023-02-02T10:13:18.110Z,1010.84
2023-02-02T10:14:18.046Z,1010.94
2023-02-02T10:15:18.734Z,1011.01
2023-02-02T10:16:18.104Z,1010.94
2023-02-02T10:17:17.842Z,1010.93
2023-02-02T10:18:17.780Z,1010.99
2023-02-02T10:19:17.746Z,1011.02
2023-02-02T10:20:17.690Z,1011.02
2023-02-02T10:21:17.596Z,1011.13
2023-02-02T10:22:17.512Z,1011.15
2023-02-02T10:23:17.463Z,1011.05
2023-02-02T10:24:17.385Z,1011.04
2023-02-02T10:25:17.311Z,1011.10
2023-02-02T10:26:17.299Z,1011.09
2023-02-02T10:27:17.229Z,1011.08
2023-02-02T10:28:17.132Z,1011.05
2023-02-02T10:29:17.041Z,1011.07
2023-02-02T10:30:16.981Z,1011.06
2023-02-02T10:31:17.056Z,1011.08
2023-02-02T10:32:16.846Z,1011.14
2023-02-02T10:33:16.777Z,1011.10
2023-02-02T10:34:16.733Z,1011.19
2023-02-02T10:35:16.719Z,1011.19
2023-02-02T10:36:16.587Z,1011.17
2023-02-02T10:37:16.525Z,1011.10
2023-02-02T10:38:16.453Z,1011.21
2023-02-02T10:39:16.384Z,1011.29
2023-02-02T10:40:16.343Z,1011.20
2023-02-02T10:41:16.274Z,1011.19
2023-02-02T10:42:16.196Z,1011.18
2023-02-02T10:43:16.131Z,1011.19
2023-02-02T10:44:16.062Z,1011.20
2023-02-02T10:45:15.994Z,1011.14
2023-02-02T10:46:15.990Z,1011.15
2023-02-02T10:47:15.869Z,1011.26
2023-02-02T10:48:15.818Z,1011.20
2023-02-02T10:49:15.827Z,1011.04
2023-02-02T10:50:15.695Z,1011.23
2023-02-02T10:51:15.617Z,1011.20
2023-02-02T10:52:15.573Z,1011.26
2023-02-02T10:53:15.522Z,1011.23
2023-02-02T10:54:15.426Z,1011.27
2023-02-02T10:55:15.351Z,1011.20
2023-02-02T10:56:15.293Z,1011.26
2023-02-02T10:57:15.232Z,1011.25
2023-02-02T10:58:15.156Z,1011.24
2023-02-02T10:59:15.089Z,1011.32
2023-02-02T11:00:15.064Z,1011.25
2023-02-02T11:01:15.003Z,1011.42
2023-02-02T11:02:20.741Z,1011.30
2023-02-02T11:03:14.842Z,1011.31
2023-02-02T11:04:14.773Z,1011.27
2023-02-02T11:05:14.696Z,1011.32
2023-02-02T11:06:14.630Z,1011.37
2023-02-02T11:07:14.572Z,1011.36
2023-02-02T11:08:14.513Z,1011.37
2023-02-02T11:09:14.436Z,1011.40
2023-02-02T11:10:14.366Z,1011.56
2023-02-02T11:11:14.307Z,1011.67
2023-02-02T11:12:14.265Z,1011.52
2023-02-02T11:13:14.176Z,1011.51
2023-02-02T11:14:14.160Z,1011.56
2023-02-02T11:15:14.046Z,1011.49
2023-02-02T11:16:14.048Z,1011.54
2023-02-02T11:17:13.911Z,1011.93
2023-02-02T11:18:13.843Z,1011.95
2023-02-02T11:19:13.872Z,1011.91
2023-02-02T11:20:13.714Z,1011.82
2023-02-02T11:21:13.649Z,1011.84
2023-02-02T11:22:13.798Z,1011.79
2023-02-02T11:23:13.641Z,1011.59
2023-02-02T11:24:13.532Z,1011.96
2023-02-02T11:25:13.511Z,1011.87
2023-02-02T11:26:13.404Z,1011.80
2023-02-02T11:27:13.298Z,1011.95
2023-02-02T11:28:13.224Z,1011.93
2023-02-02T11:29:13.146Z,1011.93
2023-02-02T11:30:13.104Z,1011.96
2023-02-02T11:31:13.172Z,1011.90
2023-02-02T11:32:12.947Z,1011.93
2023-02-02T11:33:12.884Z,1011.82
2023-02-02T11:34:12.817Z,1011.85
2023-02-02T11:35:12.826Z,1011.85
2023-02-02T11:36:12.697Z,1011.80
2023-02-02T11:37:12.654Z,1011.81
2023-02-02T11:38:12.570Z,1011.89
2023-02-02T11:39:12.534Z,1011.85
2023-02-02T11:40:12.465Z,1011.87
2023-02-02T11:41:12.407Z,1011.89
2023-02-02T11:42:12.321Z,1011.82
2023-02-02T11:43:12.258Z,1011.84
2023-02-02T11:44:12.195Z,1011.89
2023-02-02T11:45:12.138Z,1011.89
2023-02-02T11:46:12.098Z,1011.92
2023-02-02T11:47:12.002Z,1011.85
2023-02-02T11:48:11.944Z,1011.82
2023-02-02T11:49:11.873Z,1011.96
2023-02-02T11:50:11.841Z,1012.01
2023-02-02T11:51:11.784Z,1011.95
2023-02-02T11:52:14.226Z,1011.90
2023-02-02T11:53:11.634Z,1011.92
2023-02-02T11:54:11.564Z,1011.96
2023-02-02T11:55:11.501Z,1012.04
2023-02-02T11:56:11.450Z,1011.99
2023-02-02T11:57:11.357Z,1012.05
2023-02-02T11:58:12.157Z,1012.06
2023-02-02T11:59:11.233Z,1012.16
2023-02-02T12:00:11.174Z,1012.05
2023-02-02T12:01:11.098Z,1011.94
2023-02-02T12:02:11.055Z,1012.14
2023-02-02T12:03:10.980Z,1012.04
2023-02-02T12:04:11.032Z,1012.02